sensor_id;sensor_type;location;lat;lon;timestamp;temperature;humidity
9977;DHT22;5029;47.378;11.776;2022-12-24T00:04:10;6.10;99.90
9977;DHT22;5029;47.378;11.776;2022-12-24T00:09:13;6.10;99.90
9977;DHT22;5029;47.378;11.776;2022-12-24T00:14:18;6.10;99.90
9977;DHT22;5029;47.378;11.776;2022-12-24T00:19:22;6.30;99.90
9977;DHT22;5029;47.378;11.776;2022-12-24T00:24:25;6.20;99.90
9977;DHT22;5029;47.378;11.776;2022-12-24T00:29:30;6.10;99.90
9977;DHT22;5029;47.378;11.776;2022-12-24T00:34:34;6.20;99.90
9977;DHT22;5029;47.378;11.776;2022-12-24T00:39:38;6.10;99.90
9977;DHT22;5029;47.378;11.776;2022-12-24T00:44:43;6.10;99.90
9977;DHT22;5029;47.378;11.776;2022-12-24T00:49:47;6.10;99.90
9977;DHT22;5029;47.378;11.776;2022-12-24T00:54:50;6.10;99.90
9977;DHT22;5029;47.378;11.776;2022-12-24T00:59:55;5.90;99.90
9977;DHT22;5029;47.378;11.776;2022-12-24T01:04:59;5.90;99.90
9977;DHT22;5029;47.378;11.776;2022-12-24T01:10:17;5.60;99.90
9977;DHT22;5029;47.378;11.776;2022-12-24T01:15:22;5.60;99.90
9977;DHT22;5029;47.378;11.776;2022-12-24T01:20:26;5.60;99.90
9977;DHT22;5029;47.378;11.776;2022-12-24T01:25:32;6.00;99.90
9977;DHT22;5029;47.378;11.776;2022-12-24T01:30:37;6.00;99.90
9977;DHT22;5029;47.378;11.776;2022-12-24T01:35:43;5.50;99.90
9977;DHT22;5029;47.378;11.776;2022-12-24T01:40:47;5.20;99.90
9977;DHT22;5029;47.378;11.776;2022-12-24T01:46:14;5.10;99.90
9977;DHT22;5029;47.378;11.776;2022-12-24T01:51:25;5.60;99.90
9977;DHT22;5029;47.378;11.776;2022-12-24T01:56:30;6.10;99.90
9977;DHT22;5029;47.378;11.776;2022-12-24T02:01:36;6.50;99.90
9977;DHT22;5029;47.378;11.776;2022-12-24T02:06:39;6.50;99.90
9977;DHT22;5029;47.378;11.776;2022-12-24T02:11:43;6.40;99.90
9977;DHT22;5029;47.378;11.776;2022-12-24T02:16:55;6.10;99.90
9977;DHT22;5029;47.378;11.776;2022-12-24T02:22:01;5.30;99.90
9977;DHT22;5029;47.378;11.776;2022-12-24T02:27:13;5.20;99.90
9977;DHT22;5029;47.378;11.776;2022-12-24T02:32:22;5.40;99.90
9977;DHT22;5029;47.378;11.776;2022-12-24T02:37:31;5.50;99.90
9977;DHT22;5029;47.378;11.776;2022-12-24T02:42:39;5.50;99.90
9977;DHT22;5029;47.378;11.776;2022-12-24T02:47:44;5.80;99.90
9977;DHT22;5029;47.378;11.776;2022-12-24T02:52:49;6.00;99.90
9977;DHT22;5029;47.378;11.776;2022-12-24T02:58:12;6.00;99.90
9977;DHT22;5029;47.378;11.776;2022-12-24T03:03:31;6.00;99.90
9977;DHT22;5029;47.378;11.776;2022-12-24T03:08:43;6.00;99.90
9977;DHT22;5029;47.378;11.776;2022-12-24T03:13:48;6.20;99.90
9977;DHT22;5029;47.378;11.776;2022-12-24T03:18:55;6.10;99.90
9977;DHT22;5029;47.378;11.776;2022-12-24T03:23:59;6.10;99.90
9977;DHT22;5029;47.378;11.776;2022-12-24T03:29:04;6.00;99.90
9977;DHT22;5029;47.378;11.776;2022-12-24T03:34:10;6.00;99.90
9977;DHT22;5029;47.378;11.776;2022-12-24T03:39:14;6.00;99.90
9977;DHT22;5029;47.378;11.776;2022-12-24T03:44:18;5.90;99.90
9977;DHT22;5029;47.378;11.776;2022-12-24T03:49:23;6.00;99.90
9977;DHT22;5029;47.378;11.776;2022-12-24T03:54:27;5.80;99.90
9977;DHT22;5029;47.378;11.776;2022-12-24T03:59:30;5.70;99.90
9977;DHT22;5029;47.378;11.776;2022-12-24T04:04:35;5.80;99.90
9977;DHT22;5029;47.378;11.776;2022-12-24T04:09:39;5.80;99.90
9977;DHT22;5029;47.378;11.776;2022-12-24T04:14:43;5.90;99.90
9977;DHT22;5029;47.378;11.776;2022-12-24T04:19:47;6.00;99.90
9977;DHT22;5029;47.378;11.776;2022-12-24T04:24:51;5.80;99.90
9977;DHT22;5029;47.378;11.776;2022-12-24T04:29:55;5.80;99.90
9977;DHT22;5029;47.378;11.776;2022-12-24T04:35:00;6.10;99.90
9977;DHT22;5029;47.378;11.776;2022-12-24T04:40:04;6.20;99.90
9977;DHT22;5029;47.378;11.776;2022-12-24T04:45:08;6.30;99.90
9977;DHT22;5029;47.378;11.776;2022-12-24T04:50:13;6.20;99.90
9977;DHT22;5029;47.378;11.776;2022-12-24T04:55:17;6.40;99.90
9977;DHT22;5029;47.378;11.776;2022-12-24T05:00:21;6.60;99.90
9977;DHT22;5029;47.378;11.776;2022-12-24T05:05:26;6.80;1.00
9977;DHT22;5029;47.378;11.776;2022-12-24T05:10:29;6.00;99.90
9977;DHT22;5029;47.378;11.776;2022-12-24T05:15:33;5.60;99.90
9977;DHT22;5029;47.378;11.776;2022-12-24T05:20:39;5.90;99.90
9977;DHT22;5029;47.378;11.776;2022-12-24T05:25:43;6.20;99.90
9977;DHT22;5029;47.378;11.776;2022-12-24T05:31:15;5.80;29.30
9977;DHT22;5029;47.378;11.776;2022-12-24T05:36:21;5.30;99.90
9977;DHT22;5029;47.378;11.776;2022-12-24T05:41:25;5.20;99.90
9977;DHT22;5029;47.378;11.776;2022-12-24T05:46:28;5.00;99.90
9977;DHT22;5029;47.378;11.776;2022-12-24T05:51:33;5.00;99.90
9977;DHT22;5029;47.378;11.776;2022-12-24T05:56:37;4.90;99.90
9977;DHT22;5029;47.378;11.776;2022-12-24T06:01:41;4.90;99.90
9977;DHT22;5029;47.378;11.776;2022-12-24T06:06:49;4.90;99.90
9977;DHT22;5029;47.378;11.776;2022-12-24T06:11:53;4.70;99.90
9977;DHT22;5029;47.378;11.776;2022-12-24T06:16:57;4.70;99.90
9977;DHT22;5029;47.378;11.776;2022-12-24T06:22:02;4.70;99.90
9977;DHT22;5029;47.378;11.776;2022-12-24T06:27:06;4.60;99.90
9977;DHT22;5029;47.378;11.776;2022-12-24T06:32:09;4.30;99.90
9977;DHT22;5029;47.378;11.776;2022-12-24T06:37:14;4.40;99.90
9977;DHT22;5029;47.378;11.776;2022-12-24T06:42:19;4.40;99.90
9977;DHT22;5029;47.378;11.776;2022-12-24T06:47:25;4.30;99.90
9977;DHT22;5029;47.378;11.776;2022-12-24T06:52:30;4.20;99.90
9977;DHT22;5029;47.378;11.776;2022-12-24T06:57:34;4.20;99.90
9977;DHT22;5029;47.378;11.776;2022-12-24T07:02:38;4.30;99.90
9977;DHT22;5029;47.378;11.776;2022-12-24T07:07:44;4.40;99.90
9977;DHT22;5029;47.378;11.776;2022-12-24T07:12:48;4.30;99.90
9977;DHT22;5029;47.378;11.776;2022-12-24T07:17:52;4.40;99.90
9977;DHT22;5029;47.378;11.776;2022-12-24T07:22:57;4.30;99.90
9977;DHT22;5029;47.378;11.776;2022-12-24T07:28:01;4.30;99.90
9977;DHT22;5029;47.378;11.776;2022-12-24T07:33:05;4.30;99.90
9977;DHT22;5029;47.378;11.776;2022-12-24T07:38:11;4.30;99.90
9977;DHT22;5029;47.378;11.776;2022-12-24T07:43:14;4.30;99.90
9977;DHT22;5029;47.378;11.776;2022-12-24T07:48:18;4.50;99.90
9977;DHT22;5029;47.378;11.776;2022-12-24T07:53:24;4.50;99.90
9977;DHT22;5029;47.378;11.776;2022-12-24T07:58:28;4.40;99.90
9977;DHT22;5029;47.378;11.776;2022-12-24T08:03:33;4.40;99.90
9977;DHT22;5029;47.378;11.776;2022-12-24T08:08:42;4.50;99.90
9977;DHT22;5029;47.378;11.776;2022-12-24T08:13:50;4.40;99.90
9977;DHT22;5029;47.378;11.776;2022-12-24T08:19:03;4.90;99.90
9977;DHT22;5029;47.378;11.776;2022-12-24T08:24:08;4.70;99.90
9977;DHT22;5029;47.378;11.776;2022-12-24T08:29:12;4.40;99.90
9977;DHT22;5029;47.378;11.776;2022-12-24T08:34:15;4.40;99.90
9977;DHT22;5029;47.378;11.776;2022-12-24T08:39:20;4.70;99.90
9977;DHT22;5029;47.378;11.776;2022-12-24T08:44:24;4.70;99.90
9977;DHT22;5029;47.378;11.776;2022-12-24T08:49:28;5.00;99.90
9977;DHT22;5029;47.378;11.776;2022-12-24T08:54:33;4.80;99.90
9977;DHT22;5029;47.378;11.776;2022-12-24T08:59:36;4.80;99.90
9977;DHT22;5029;47.378;11.776;2022-12-24T09:04:40;4.90;99.90
9977;DHT22;5029;47.378;11.776;2022-12-24T09:09:46;4.90;99.90
9977;DHT22;5029;47.378;11.776;2022-12-24T09:14:50;4.80;99.90
9977;DHT22;5029;47.378;11.776;2022-12-24T09:20:04;4.90;99.90
9977;DHT22;5029;47.378;11.776;2022-12-24T09:25:10;4.80;99.90
9977;DHT22;5029;47.378;11.776;2022-12-24T09:30:14;4.80;99.90
9977;DHT22;5029;47.378;11.776;2022-12-24T09:35:18;5.00;99.90
9977;DHT22;5029;47.378;11.776;2022-12-24T09:40:24;5.10;99.90
9977;DHT22;5029;47.378;11.776;2022-12-24T09:45:33;5.20;99.90
9977;DHT22;5029;47.378;11.776;2022-12-24T09:50:39;5.30;99.90
9977;DHT22;5029;47.378;11.776;2022-12-24T09:55:48;5.30;99.90
9977;DHT22;5029;47.378;11.776;2022-12-24T10:00:52;5.40;99.90
9977;DHT22;5029;47.378;11.776;2022-12-24T10:06:04;5.60;99.90
9977;DHT22;5029;47.378;11.776;2022-12-24T10:11:21;5.70;99.90
9977;DHT22;5029;47.378;11.776;2022-12-24T10:16:31;5.50;99.90
9977;DHT22;5029;47.378;11.776;2022-12-24T10:21:47;5.70;99.90
9977;DHT22;5029;47.378;11.776;2022-12-24T10:26:57;5.70;99.90
9977;DHT22;5029;47.378;11.776;2022-12-24T10:32:13;5.70;99.90
9977;DHT22;5029;47.378;11.776;2022-12-24T10:37:21;5.70;99.90
9977;DHT22;5029;47.378;11.776;2022-12-24T10:42:34;5.90;99.90
9977;DHT22;5029;47.378;11.776;2022-12-24T10:47:40;6.00;99.90
9977;DHT22;5029;47.378;11.776;2022-12-24T10:52:45;6.00;99.90
9977;DHT22;5029;47.378;11.776;2022-12-24T10:58:00;5.90;99.90
9977;DHT22;5029;47.378;11.776;2022-12-24T11:03:23;5.90;99.90
9977;DHT22;5029;47.378;11.776;2022-12-24T11:08:29;5.90;99.90
9977;DHT22;5029;47.378;11.776;2022-12-24T11:13:36;5.90;99.90
9977;DHT22;5029;47.378;11.776;2022-12-24T11:18:47;5.90;99.90
9977;DHT22;5029;47.378;11.776;2022-12-24T11:23:55;5.90;99.90
9977;DHT22;5029;47.378;11.776;2022-12-24T11:29:13;6.00;99.90
9977;DHT22;5029;47.378;11.776;2022-12-24T11:34:25;6.00;99.90
9977;DHT22;5029;47.378;11.776;2022-12-24T11:39:37;6.10;99.90
9977;DHT22;5029;47.378;11.776;2022-12-24T11:44:48;6.00;99.90
9977;DHT22;5029;47.378;11.776;2022-12-24T11:49:52;6.10;99.90
9977;DHT22;5029;47.378;11.776;2022-12-24T11:55:19;6.10;99.90
9977;DHT22;5029;47.378;11.776;2022-12-24T12:00:26;6.00;99.90
9977;DHT22;5029;47.378;11.776;2022-12-24T12:05:32;5.90;99.90
9977;DHT22;5029;47.378;11.776;2022-12-24T12:10:38;6.00;99.90
9977;DHT22;5029;47.378;11.776;2022-12-24T12:15:47;6.10;99.90
9977;DHT22;5029;47.378;11.776;2022-12-24T12:20:59;6.10;99.90
9977;DHT22;5029;47.378;11.776;2022-12-24T12:26:07;6.00;99.90
9977;DHT22;5029;47.378;11.776;2022-12-24T12:31:20;6.10;99.90
9977;DHT22;5029;47.378;11.776;2022-12-24T12:36:29;6.00;99.90
9977;DHT22;5029;47.378;11.776;2022-12-24T12:41:49;5.90;99.90
9977;DHT22;5029;47.378;11.776;2022-12-24T12:47:07;6.00;99.90
9977;DHT22;5029;47.378;11.776;2022-12-24T12:52:21;6.00;99.90
9977;DHT22;5029;47.378;11.776;2022-12-24T12:57:33;6.00;99.90
9977;DHT22;5029;47.378;11.776;2022-12-24T13:03:20;6.10;99.90
9977;DHT22;5029;47.378;11.776;2022-12-24T13:08:42;6.00;99.90
9977;DHT22;5029;47.378;11.776;2022-12-24T13:14:15;6.10;99.90
9977;DHT22;5029;47.378;11.776;2022-12-24T13:19:38;5.90;99.90
9977;DHT22;5029;47.378;11.776;2022-12-24T13:24:49;5.90;99.90
9977;DHT22;5029;47.378;11.776;2022-12-24T13:29:57;5.90;99.90
9977;DHT22;5029;47.378;11.776;2022-12-24T13:35:34;5.90;99.90
9977;DHT22;5029;47.378;11.776;2022-12-24T13:40:46;5.80;99.90
9977;DHT22;5029;47.378;11.776;2022-12-24T13:45:50;5.90;99.90
9977;DHT22;5029;47.378;11.776;2022-12-24T13:50:58;5.90;99.90
9977;DHT22;5029;47.378;11.776;2022-12-24T13:56:07;5.80;99.90
9977;DHT22;5029;47.378;11.776;2022-12-24T14:01:14;5.80;99.90
9977;DHT22;5029;47.378;11.776;2022-12-24T14:06:23;5.70;99.90
9977;DHT22;5029;47.378;11.776;2022-12-24T14:16:56;5.60;99.90
9977;DHT22;5029;47.378;11.776;2022-12-24T14:22:11;5.60;99.90
9977;DHT22;5029;47.378;11.776;2022-12-24T14:27:29;5.50;99.90
9977;DHT22;5029;47.378;11.776;2022-12-24T14:32:36;5.40;99.90
9977;DHT22;5029;47.378;11.776;2022-12-24T14:37:45;5.40;99.90
9977;DHT22;5029;47.378;11.776;2022-12-24T14:42:55;5.30;99.90
9977;DHT22;5029;47.378;11.776;2022-12-24T14:48:12;5.30;99.90
9977;DHT22;5029;47.378;11.776;2022-12-24T14:53:40;5.10;99.90
9977;DHT22;5029;47.378;11.776;2022-12-24T14:58:50;4.90;99.90
9977;DHT22;5029;47.378;11.776;2022-12-24T15:04:02;5.00;99.90
9977;DHT22;5029;47.378;11.776;2022-12-24T15:09:19;4.90;99.90
9977;DHT22;5029;47.378;11.776;2022-12-24T15:14:25;4.80;99.90
9977;DHT22;5029;47.378;11.776;2022-12-24T15:19:32;4.80;99.90
9977;DHT22;5029;47.378;11.776;2022-12-24T15:24:44;4.70;99.90
9977;DHT22;5029;47.378;11.776;2022-12-24T15:29:49;4.70;99.90
9977;DHT22;5029;47.378;11.776;2022-12-24T15:34:54;4.70;99.90
9977;DHT22;5029;47.378;11.776;2022-12-24T15:40:05;4.70;99.90
9977;DHT22;5029;47.378;11.776;2022-12-24T15:45:13;4.70;99.90
9977;DHT22;5029;47.378;11.776;2022-12-24T15:50:29;4.60;99.90
9977;DHT22;5029;47.378;11.776;2022-12-24T15:55:37;4.60;99.90
9977;DHT22;5029;47.378;11.776;2022-12-24T16:00:42;4.50;99.90
9977;DHT22;5029;47.378;11.776;2022-12-24T16:05:46;4.40;99.90
9977;DHT22;5029;47.378;11.776;2022-12-24T16:11:20;4.40;99.90
9977;DHT22;5029;47.378;11.776;2022-12-24T16:16:32;4.40;99.90
9977;DHT22;5029;47.378;11.776;2022-12-24T16:21:39;4.40;99.90
9977;DHT22;5029;47.378;11.776;2022-12-24T16:26:45;4.40;99.90
9977;DHT22;5029;47.378;11.776;2022-12-24T16:31:50;4.40;99.90
9977;DHT22;5029;47.378;11.776;2022-12-24T16:36:54;4.30;99.90
9977;DHT22;5029;47.378;11.776;2022-12-24T16:42:00;4.40;99.90
9977;DHT22;5029;47.378;11.776;2022-12-24T16:47:24;4.50;99.90
9977;DHT22;5029;47.378;11.776;2022-12-24T16:52:29;4.40;99.90
9977;DHT22;5029;47.378;11.776;2022-12-24T16:57:38;4.30;99.90
9977;DHT22;5029;47.378;11.776;2022-12-24T17:02:42;4.30;99.90
9977;DHT22;5029;47.378;11.776;2022-12-24T17:07:46;4.30;99.90
9977;DHT22;5029;47.378;11.776;2022-12-24T17:12:51;4.30;99.90
9977;DHT22;5029;47.378;11.776;2022-12-24T17:17:55;4.30;99.90
9977;DHT22;5029;47.378;11.776;2022-12-24T17:22:58;4.30;99.90
9977;DHT22;5029;47.378;11.776;2022-12-24T17:28:04;4.30;99.90
9977;DHT22;5029;47.378;11.776;2022-12-24T17:33:07;4.20;99.90
9977;DHT22;5029;47.378;11.776;2022-12-24T17:38:15;4.20;99.90
9977;DHT22;5029;47.378;11.776;2022-12-24T17:43:20;4.20;99.90
9977;DHT22;5029;47.378;11.776;2022-12-24T17:48:24;4.10;99.90
9977;DHT22;5029;47.378;11.776;2022-12-24T17:53:27;4.20;99.90
9977;DHT22;5029;47.378;11.776;2022-12-24T17:58:33;4.10;99.90
9977;DHT22;5029;47.378;11.776;2022-12-24T18:03:36;4.10;99.90
9977;DHT22;5029;47.378;11.776;2022-12-24T18:08:41;4.10;99.90
9977;DHT22;5029;47.378;11.776;2022-12-24T18:13:48;4.10;99.90
9977;DHT22;5029;47.378;11.776;2022-12-24T18:18:52;4.00;99.90
9977;DHT22;5029;47.378;11.776;2022-12-24T18:23:56;4.00;99.90
9977;DHT22;5029;47.378;11.776;2022-12-24T18:29:02;4.00;99.90
9977;DHT22;5029;47.378;11.776;2022-12-24T18:34:10;4.00;99.90
9977;DHT22;5029;47.378;11.776;2022-12-24T18:39:13;3.90;99.90
9977;DHT22;5029;47.378;11.776;2022-12-24T18:44:18;4.00;99.90
9977;DHT22;5029;47.378;11.776;2022-12-24T18:49:26;4.00;99.90
9977;DHT22;5029;47.378;11.776;2022-12-24T18:54:30;4.10;99.90
9977;DHT22;5029;47.378;11.776;2022-12-24T18:59:35;4.10;99.90
9977;DHT22;5029;47.378;11.776;2022-12-24T19:04:40;4.00;99.90
9977;DHT22;5029;47.378;11.776;2022-12-24T19:09:43;4.00;99.90
9977;DHT22;5029;47.378;11.776;2022-12-24T19:14:50;4.00;99.90
9977;DHT22;5029;47.378;11.776;2022-12-24T19:19:54;4.00;99.90
9977;DHT22;5029;47.378;11.776;2022-12-24T19:24:58;4.00;99.90
9977;DHT22;5029;47.378;11.776;2022-12-24T19:30:04;3.90;99.90
9977;DHT22;5029;47.378;11.776;2022-12-24T19:35:08;4.00;99.90
9977;DHT22;5029;47.378;11.776;2022-12-24T19:40:12;4.00;99.90
9977;DHT22;5029;47.378;11.776;2022-12-24T19:45:19;4.00;99.90
9977;DHT22;5029;47.378;11.776;2022-12-24T19:50:23;4.00;99.90
9977;DHT22;5029;47.378;11.776;2022-12-24T19:55:27;3.90;99.90
9977;DHT22;5029;47.378;11.776;2022-12-24T20:00:32;3.90;99.90
9977;DHT22;5029;47.378;11.776;2022-12-24T20:05:39;4.00;99.90
9977;DHT22;5029;47.378;11.776;2022-12-24T20:10:45;3.90;99.90
9977;DHT22;5029;47.378;11.776;2022-12-24T20:15:51;3.90;99.90
9977;DHT22;5029;47.378;11.776;2022-12-24T20:20:57;3.90;99.90
9977;DHT22;5029;47.378;11.776;2022-12-24T20:26:03;3.90;99.90
9977;DHT22;5029;47.378;11.776;2022-12-24T20:31:16;3.80;99.90
9977;DHT22;5029;47.378;11.776;2022-12-24T20:36:22;3.80;99.90
9977;DHT22;5029;47.378;11.776;2022-12-24T20:41:29;3.80;99.90
9977;DHT22;5029;47.378;11.776;2022-12-24T20:46:35;3.80;99.90
9977;DHT22;5029;47.378;11.776;2022-12-24T20:51:38;3.70;99.90
9977;DHT22;5029;47.378;11.776;2022-12-24T20:56:42;3.60;99.90
9977;DHT22;5029;47.378;11.776;2022-12-24T21:02:00;3.70;99.90
9977;DHT22;5029;47.378;11.776;2022-12-24T21:07:04;3.70;99.90
9977;DHT22;5029;47.378;11.776;2022-12-24T21:12:09;3.70;99.90
9977;DHT22;5029;47.378;11.776;2022-12-24T21:17:31;3.60;99.90
9977;DHT22;5029;47.378;11.776;2022-12-24T21:22:35;3.70;99.90
9977;DHT22;5029;47.378;11.776;2022-12-24T21:27:39;3.60;99.90
9977;DHT22;5029;47.378;11.776;2022-12-24T21:32:44;3.70;99.90
9977;DHT22;5029;47.378;11.776;2022-12-24T21:37:48;3.70;99.90
9977;DHT22;5029;47.378;11.776;2022-12-24T21:42:52;3.60;99.90
9977;DHT22;5029;47.378;11.776;2022-12-24T21:47:57;3.60;99.90
9977;DHT22;5029;47.378;11.776;2022-12-24T21:53:21;3.60;99.90
9977;DHT22;5029;47.378;11.776;2022-12-24T21:58:43;3.60;99.90
9977;DHT22;5029;47.378;11.776;2022-12-24T22:03:48;3.60;99.90
9977;DHT22;5029;47.378;11.776;2022-12-24T22:08:52;3.50;99.90
9977;DHT22;5029;47.378;11.776;2022-12-24T22:14:13;3.60;99.90
9977;DHT22;5029;47.378;11.776;2022-12-24T22:19:18;3.50;99.90
9977;DHT22;5029;47.378;11.776;2022-12-24T22:24:22;3.50;99.90
9977;DHT22;5029;47.378;11.776;2022-12-24T22:29:26;3.60;99.90
9977;DHT22;5029;47.378;11.776;2022-12-24T22:34:32;3.50;99.90
9977;DHT22;5029;47.378;11.776;2022-12-24T22:39:37;3.50;99.90
9977;DHT22;5029;47.378;11.776;2022-12-24T22:44:41;3.50;99.90
9977;DHT22;5029;47.378;11.776;2022-12-24T22:49:48;3.50;99.90
9977;DHT22;5029;47.378;11.776;2022-12-24T22:54:51;3.50;99.90
9977;DHT22;5029;47.378;11.776;2022-12-24T22:59:55;3.50;99.90
9977;DHT22;5029;47.378;11.776;2022-12-24T23:05:01;3.60;99.90
9977;DHT22;5029;47.378;11.776;2022-12-24T23:10:05;3.60;99.90
9977;DHT22;5029;47.378;11.776;2022-12-24T23:15:10;3.60;99.90
9977;DHT22;5029;47.378;11.776;2022-12-24T23:20:15;3.60;99.90
9977;DHT22;5029;47.378;11.776;2022-12-24T23:25:19;3.60;99.90
9977;DHT22;5029;47.378;11.776;2022-12-24T23:36:16;3.60;99.90
9977;DHT22;5029;47.378;11.776;2022-12-24T23:41:20;3.60;99.90
9977;DHT22;5029;47.378;11.776;2022-12-24T23:46:24;3.50;99.90
9977;DHT22;5029;47.378;11.776;2022-12-24T23:51:29;3.50;99.90
9977;DHT22;5029;47.378;11.776;2022-12-24T23:56:33;3.60;99.90
